Time;durP1;ratioP1;P1;durP2;ratioP2;P2;SDS_P1;SDS_P2;PMS_P1;PMS_P2;Temp;Humidity;BMP_temperature;BMP_pressure;BME280_temperature;BME280_humidity;BME280_pressure;Samples;Min_cycle;Max_cycle;Signal;HPM_P1;HPM_P2
2023/04/21 00:02:17;;;;;;;;;;;11.20;60.90;;;;;;9179636;19;20359;-67
2023/04/21 00:05:20;;;;;;;;;;;11.20;60.90;;;;;;9175665;19;19996;-67
2023/04/21 00:08:28;;;;;;;;;;;11.20;60.90;;;;;;9179723;19;19926;-67
2023/04/21 00:11:32;;;;;;;;;;;11.20;60.90;;;;;;9178083;19;19933;-68
2023/04/21 00:14:38;;;;;;;;;;;11.30;61.00;;;;;;9178647;19;20336;-67
2023/04/21 00:17:42;;;;;;;;;;;11.30;61.10;;;;;;9175836;19;19929;-68
2023/04/21 00:20:48;;;;;;;;;;;11.30;61.10;;;;;;9179372;19;19926;-67
2023/04/21 00:23:54;;;;;;;;;;;11.30;61.10;;;;;;9178921;19;19954;-67
2023/04/21 00:26:59;;;;;;;;;;;11.30;61.10;;;;;;9179033;19;19927;-67
2023/04/21 00:30:03;;;;;;;;;;;11.30;61.20;;;;;;9178776;19;19933;-66
2023/04/21 00:33:09;;;;;;;;;;;11.40;61.20;;;;;;9179023;19;19918;-67
2023/04/21 00:36:13;;;;;;;;;;;11.40;61.40;;;;;;9170802;19;19934;-66
2023/04/21 00:39:21;;;;;;;;;;;11.40;61.40;;;;;;9177797;19;19919;-66
2023/04/21 00:42:25;;;;;;;;;;;11.40;61.40;;;;;;9178442;19;20334;-68
2023/04/21 00:45:32;;;;;;;;;;;11.40;61.40;;;;;;9177230;19;19960;-67
2023/04/21 00:48:36;;;;;;;;;;;11.40;61.40;;;;;;9177928;19;19915;-67
2023/04/21 00:51:44;;;;;;;;;;;11.40;61.50;;;;;;9175171;19;19927;-67
2023/04/21 00:54:50;;;;;;;;;;;11.40;61.50;;;;;;9177927;19;19948;-67
2023/04/21 00:57:56;;;;;;;;;;;11.40;61.60;;;;;;9172472;19;19923;-67
2023/04/21 01:01:04;;;;;;;;;;;11.40;61.60;;;;;;9172158;19;20276;-68
2023/04/21 01:04:10;;;;;;;;;;;11.40;61.60;;;;;;9177554;19;19926;-68
2023/04/21 01:07:14;;;;;;;;;;;11.40;61.60;;;;;;9177520;19;19915;-67
2023/04/21 01:10:22;;;;;;;;;;;11.40;61.70;;;;;;9177248;19;19922;-67
2023/04/21 01:13:27;;;;;;;;;;;11.40;61.80;;;;;;9175125;19;20340;-67
2023/04/21 01:16:33;;;;;;;;;;;11.40;61.80;;;;;;9175408;19;19919;-67
2023/04/21 01:19:40;;;;;;;;;;;11.40;61.80;;;;;;9174075;19;19930;-67
2023/04/21 01:22:50;;;;;;;;;;;11.40;61.90;;;;;;9176663;19;19922;-68
2023/04/21 01:25:54;;;;;;;;;;;11.40;62.00;;;;;;9176961;19;19974;-67
2023/04/21 01:29:00;;;;;;;;;;;11.30;62.00;;;;;;9176733;19;20349;-67
2023/04/21 01:32:08;;;;;;;;;;;11.30;62.00;;;;;;9168895;19;19937;-67
2023/04/21 01:35:14;;;;;;;;;;;11.30;62.00;;;;;;9172617;19;19922;-67
2023/04/21 01:38:19;;;;;;;;;;;11.30;62.10;;;;;;9169405;19;19922;-67
2023/04/21 01:41:25;;;;;;;;;;;11.30;62.10;;;;;;9174880;19;19930;-66
2023/04/21 01:44:30;;;;;;;;;;;11.30;62.20;;;;;;9175816;19;19911;-66
2023/04/21 01:47:36;;;;;;;;;;;11.30;62.20;;;;;;9176219;19;19911;-66
2023/04/21 01:50:42;;;;;;;;;;;11.30;62.20;;;;;;9173584;19;19929;-68
2023/04/21 01:53:51;;;;;;;;;;;11.30;62.20;;;;;;9173602;19;20276;-68
2023/04/21 01:56:55;;;;;;;;;;;11.30;62.20;;;;;;9172701;19;19956;-67
2023/04/21 02:00:00;;;;;;;;;;;11.30;62.30;;;;;;9173495;19;20351;-67
2023/04/21 02:03:04;;;;;;;;;;;11.30;62.30;;;;;;9174292;19;19923;-67
2023/04/21 02:06:10;;;;;;;;;;;11.30;62.30;;;;;;9183580;19;19922;-67
2023/04/21 02:09:18;;;;;;;;;;;11.30;62.30;;;;;;9183246;19;20361;-67
2023/04/21 02:12:24;;;;;;;;;;;11.30;62.30;;;;;;9182508;19;19931;-67
2023/04/21 02:15:28;;;;;;;;;;;11.40;62.40;;;;;;9181664;19;19923;-67
2023/04/21 02:18:38;;;;;;;;;;;11.40;62.40;;;;;;9182993;19;20010;-67
2023/04/21 02:21:42;;;;;;;;;;;11.40;62.40;;;;;;9182383;19;19911;-67
2023/04/21 02:24:50;;;;;;;;;;;11.40;62.40;;;;;;9182788;19;19923;-68
2023/04/21 02:27:55;;;;;;;;;;;11.50;62.40;;;;;;9182600;19;19918;-67
2023/04/21 02:31:01;;;;;;;;;;;11.50;62.40;;;;;;9182477;19;19922;-67
2023/04/21 02:34:05;;;;;;;;;;;11.50;62.40;;;;;;9183849;19;20471;-66
2023/04/21 02:37:11;;;;;;;;;;;11.50;62.40;;;;;;9174165;19;19929;-67
2023/04/21 02:40:17;;;;;;;;;;;11.50;62.50;;;;;;9173788;19;19923;-67
2023/04/21 02:43:22;;;;;;;;;;;11.50;62.50;;;;;;9177449;19;19923;-67
2023/04/21 02:46:26;;;;;;;;;;;11.50;62.60;;;;;;9182283;19;19919;-68
2023/04/21 02:49:32;;;;;;;;;;;11.50;62.50;;;;;;9181626;19;20341;-67
2023/04/21 02:52:36;;;;;;;;;;;11.50;62.60;;;;;;9179759;19;19926;-67
2023/04/21 02:55:44;;;;;;;;;;;11.50;62.60;;;;;;9180025;19;19925;-67
2023/04/21 02:58:48;;;;;;;;;;;11.50;62.60;;;;;;9180115;19;19911;-67
2023/04/21 03:01:54;;;;;;;;;;;11.50;62.70;;;;;;9179570;19;20280;-67
2023/04/21 03:04:58;;;;;;;;;;;11.50;62.70;;;;;;9181430;19;19915;-67
2023/04/21 03:08:03;;;;;;;;;;;11.50;62.80;;;;;;9181332;19;19927;-66
2023/04/21 03:11:09;;;;;;;;;;;11.50;62.80;;;;;;9181056;19;19919;-67
2023/04/21 03:14:15;;;;;;;;;;;11.50;62.80;;;;;;9176882;19;19922;-67
2023/04/21 03:17:19;;;;;;;;;;;11.50;62.90;;;;;;9176991;19;19918;-67
2023/04/21 03:20:25;;;;;;;;;;;11.50;62.80;;;;;;9181087;19;19929;-67
2023/04/21 03:23:29;;;;;;;;;;;11.50;62.90;;;;;;9180121;19;19942;-67
2023/04/21 03:26:37;;;;;;;;;;;11.50;62.90;;;;;;9179465;19;19930;-67
2023/04/21 03:29:41;;;;;;;;;;;11.50;62.90;;;;;;9180712;19;19924;-67
2023/04/21 03:32:46;;;;;;;;;;;11.60;63.00;;;;;;9179030;19;19918;-68
2023/04/21 03:35:50;;;;;;;;;;;11.60;63.00;;;;;;9174779;19;19919;-67
2023/04/21 03:38:57;;;;;;;;;;;11.60;63.30;;;;;;9178526;19;19925;-67
2023/04/21 03:42:14;;;;;;;;;;;11.60;63.00;;;;;;9175663;19;19929;-67
2023/04/21 03:45:21;;;;;;;;;;;11.60;63.00;;;;;;9171829;19;20272;-67
2023/04/21 03:48:25;;;;;;;;;;;11.60;63.00;;;;;;9178222;19;20278;-67
2023/04/21 03:51:31;;;;;;;;;;;11.60;63.00;;;;;;9179538;19;20269;-67
2023/04/21 03:54:34;;;;;;;;;;;11.60;63.10;;;;;;9180408;19;19925;-67
2023/04/21 03:57:42;;;;;;;;;;;11.60;63.10;;;;;;9175625;19;19922;-66
2023/04/21 04:00:46;;;;;;;;;;;11.60;63.10;;;;;;9179743;19;19919;-67
2023/04/21 04:03:52;;;;;;;;;;;11.60;63.10;;;;;;9179429;19;19918;-67
2023/04/21 04:06:56;;;;;;;;;;;11.60;63.20;;;;;;9173256;19;20333;-67
2023/04/21 04:10:02;;;;;;;;;;;11.60;63.20;;;;;;9172075;19;19925;-67
2023/04/21 04:13:07;;;;;;;;;;;11.60;63.20;;;;;;9170750;19;19937;-67
2023/04/21 04:16:13;;;;;;;;;;;11.60;63.20;;;;;;9170670;19;20264;-68
2023/04/21 04:19:17;;;;;;;;;;;11.60;63.30;;;;;;9169617;19;20264;-67
2023/04/21 04:22:23;;;;;;;;;;;11.60;63.30;;;;;;9170352;19;19930;-67
2023/04/21 04:25:27;;;;;;;;;;;11.60;63.40;;;;;;9166738;19;19926;-67
2023/04/21 04:28:35;;;;;;;;;;;11.60;64.00;;;;;;9171050;19;20652;-67
2023/04/21 04:31:38;;;;;;;;;;;11.60;63.40;;;;;;9170750;19;20307;-67
2023/04/21 04:34:44;;;;;;;;;;;11.60;63.40;;;;;;9171199;19;19918;-67
2023/04/21 04:37:48;;;;;;;;;;;11.60;63.40;;;;;;9163355;19;19916;-68
2023/04/21 04:40:56;;;;;;;;;;;11.60;63.50;;;;;;9169980;19;19918;-67
2023/04/21 04:44:03;;;;;;;;;;;11.60;63.60;;;;;;9167548;19;19926;-67
2023/04/21 04:47:09;;;;;;;;;;;11.60;63.50;;;;;;9169306;19;19926;-67
2023/04/21 04:50:12;;;;;;;;;;;11.60;63.50;;;;;;9169180;19;20165;-67
2023/04/21 04:53:18;;;;;;;;;;;11.60;63.60;;;;;;9169349;19;19918;-67
2023/04/21 04:56:22;;;;;;;;;;;11.60;63.70;;;;;;9171414;19;19918;-67
2023/04/21 04:59:30;;;;;;;;;;;11.50;63.70;;;;;;9174749;19;19930;-67
2023/04/21 05:02:33;;;;;;;;;;;11.50;63.70;;;;;;9177138;19;19980;-67
2023/04/21 05:05:40;;;;;;;;;;;11.60;63.80;;;;;;9177168;19;19934;-66
2023/04/21 05:08:43;;;;;;;;;;;11.60;63.80;;;;;;9171078;19;19926;-67
2023/04/21 05:11:49;;;;;;;;;;;11.60;63.90;;;;;;9171205;19;19931;-66
2023/04/21 05:14:55;;;;;;;;;;;11.60;63.80;;;;;;9170694;19;20007;-67
2023/04/21 05:18:00;;;;;;;;;;;11.60;63.90;;;;;;9166083;19;20337;-66
2023/04/21 05:21:04;;;;;;;;;;;11.60;63.90;;;;;;9168226;19;19922;-67
2023/04/21 05:24:10;;;;;;;;;;;11.60;63.90;;;;;;9170066;19;19929;-66
2023/04/21 05:27:14;;;;;;;;;;;11.60;63.90;;;;;;9176747;19;19990;-66
2023/04/21 05:30:22;;;;;;;;;;;11.60;64.50;;;;;;9176742;19;19922;-66
2023/04/21 05:33:26;;;;;;;;;;;11.60;63.90;;;;;;9175592;19;19929;-66
2023/04/21 05:36:32;;;;;;;;;;;11.60;63.90;;;;;;9170087;19;20293;-66
2023/04/21 05:39:35;;;;;;;;;;;11.70;64.00;;;;;;9176122;19;19914;-66
2023/04/21 05:42:41;;;;;;;;;;;11.70;63.90;;;;;;9171873;19;19922;-66
2023/04/21 05:45:47;;;;;;;;;;;11.70;64.00;;;;;;9175803;19;19922;-67
2023/04/21 05:48:52;;;;;;;;;;;11.70;64.00;;;;;;9176101;19;19918;-67
2023/04/21 05:51:56;;;;;;;;;;;11.70;64.00;;;;;;9176009;19;19911;-67
2023/04/21 05:55:02;;;;;;;;;;;11.70;64.10;;;;;;9175868;19;20309;-67
2023/04/21 05:58:06;;;;;;;;;;;11.80;64.10;;;;;;9173713;19;19911;-67
2023/04/21 06:01:14;;;;;;;;;;;11.80;64.10;;;;;;9173586;19;19922;-67
2023/04/21 06:04:18;;;;;;;;;;;11.80;64.10;;;;;;9175834;19;19918;-68
2023/04/21 06:07:24;;;;;;;;;;;11.80;64.10;;;;;;9175041;19;19915;-67
2023/04/21 06:10:29;;;;;;;;;;;11.90;64.20;;;;;;9175986;19;19909;-67
2023/04/21 06:13:35;;;;;;;;;;;11.90;64.10;;;;;;9172698;19;19938;-67
2023/04/21 06:16:44;;;;;;;;;;;11.90;64.10;;;;;;9174327;19;19931;-67
2023/04/21 06:19:51;;;;;;;;;;;11.90;64.20;;;;;;9174842;19;19922;-67
2023/04/21 06:22:55;;;;;;;;;;;11.90;64.20;;;;;;9174249;19;19922;-68
2023/04/21 06:26:03;;;;;;;;;;;12.00;64.20;;;;;;9174812;19;19918;-68
2023/04/21 06:29:07;;;;;;;;;;;12.00;64.20;;;;;;9174844;19;20329;-68
2023/04/21 06:32:15;;;;;;;;;;;12.10;64.30;;;;;;9174232;19;19919;-68
2023/04/21 06:35:19;;;;;;;;;;;12.10;64.30;;;;;;9174200;19;20348;-67
2023/04/21 06:38:25;;;;;;;;;;;12.10;64.30;;;;;;9163546;19;20273;-68
2023/04/21 06:41:29;;;;;;;;;;;12.20;64.30;;;;;;9173700;19;20256;-67
2023/04/21 06:44:35;;;;;;;;;;;12.20;64.30;;;;;;9173632;19;19918;-67
2023/04/21 06:47:40;;;;;;;;;;;12.20;64.30;;;;;;9174255;19;20325;-68
2023/04/21 06:50:46;;;;;;;;;;;12.20;64.30;;;;;;9178777;19;20458;-67
2023/04/21 06:53:50;;;;;;;;;;;12.30;64.30;;;;;;9181271;19;19933;-67
2023/04/21 06:56:56;;;;;;;;;;;12.30;64.40;;;;;;9181300;19;19922;-67
2023/04/21 07:00:00;;;;;;;;;;;12.30;64.30;;;;;;9181943;19;19918;-67
2023/04/21 07:03:07;;;;;;;;;;;12.40;64.40;;;;;;9172744;19;19930;-67
2023/04/21 07:06:11;;;;;;;;;;;12.40;64.40;;;;;;9174089;19;19941;-67
2023/04/21 07:09:17;;;;;;;;;;;12.40;64.40;;;;;;9174444;19;19946;-68
2023/04/21 07:12:22;;;;;;;;;;;12.50;64.50;;;;;;9173257;19;19923;-67
2023/04/21 07:15:27;;;;;;;;;;;12.50;64.40;;;;;;9175085;19;19919;-67
2023/04/21 07:18:33;;;;;;;;;;;12.60;64.50;;;;;;9176813;19;20333;-67
2023/04/21 07:21:39;;;;;;;;;;;12.60;64.40;;;;;;9180232;19;19922;-67
2023/04/21 07:24:43;;;;;;;;;;;12.70;64.50;;;;;;9180644;19;19923;-67
2023/04/21 07:27:48;;;;;;;;;;;12.80;64.60;;;;;;9179930;19;19976;-67
2023/04/21 07:30:52;;;;;;;;;;;12.90;64.60;;;;;;9180478;19;19952;-68
2023/04/21 07:34:00;;;;;;;;;;;13.00;64.60;;;;;;9177459;19;19911;-68
2023/04/21 07:37:03;;;;;;;;;;;13.00;64.50;;;;;;9172356;19;19923;-66
2023/04/21 07:40:10;;;;;;;;;;;13.20;64.50;;;;;;9180189;19;19919;-66
2023/04/21 07:43:14;;;;;;;;;;;13.30;64.50;;;;;;9179810;19;19923;-66
2023/04/21 07:46:20;;;;;;;;;;;13.40;64.50;;;;;;9178919;19;19930;-67
2023/04/21 07:49:26;;;;;;;;;;;13.50;64.50;;;;;;9180448;19;19926;-67
2023/04/21 07:52:31;;;;;;;;;;;13.50;64.40;;;;;;9180774;19;19928;-67
2023/04/21 07:55:36;;;;;;;;;;;13.60;64.40;;;;;;9178777;19;20355;-67
2023/04/21 07:58:41;;;;;;;;;;;13.60;64.40;;;;;;9177566;19;19926;-67
2023/04/21 08:01:45;;;;;;;;;;;13.70;64.40;;;;;;9179463;19;20599;-67
2023/04/21 08:04:53;;;;;;;;;;;13.70;64.40;;;;;;9179336;19;19921;-67
2023/04/21 08:07:57;;;;;;;;;;;13.70;64.40;;;;;;9178090;19;20252;-67
2023/04/21 08:11:02;;;;;;;;;;;13.80;64.40;;;;;;9178791;19;19922;-66
2023/04/21 08:14:08;;;;;;;;;;;13.90;64.40;;;;;;9175856;19;19948;-67
2023/04/21 08:17:14;;;;;;;;;;;13.90;64.40;;;;;;9179326;19;19919;-67
2023/04/21 08:20:20;;;;;;;;;;;14.00;64.50;;;;;;9178097;19;19934;-67
2023/04/21 08:23:26;;;;;;;;;;;14.00;64.40;;;;;;9168142;19;19922;-67
2023/04/21 08:26:32;;;;;;;;;;;14.10;64.50;;;;;;9173801;19;19922;-67
2023/04/21 08:29:38;;;;;;;;;;;14.20;64.50;;;;;;9168033;19;19915;-67
2023/04/21 08:32:43;;;;;;;;;;;14.30;64.50;;;;;;9171912;19;19931;-67
2023/04/21 08:35:50;;;;;;;;;;;14.40;64.40;;;;;;9166215;19;19919;-67
2023/04/21 08:39:09;;;;;;;;;;;14.50;64.40;;;;;;9168410;19;19998;-67
2023/04/21 08:42:15;;;;;;;;;;;14.60;64.40;;;;;;9170634;19;20038;-67
2023/04/21 08:45:19;;;;;;;;;;;14.70;64.40;;;;;;9170466;19;20269;-67
2023/04/21 08:48:25;;;;;;;;;;;14.80;64.40;;;;;;9171529;19;19922;-67
2023/04/21 08:51:31;;;;;;;;;;;14.90;64.40;;;;;;9171480;19;20346;-67
2023/04/21 08:54:37;;;;;;;;;;;15.00;64.40;;;;;;9172142;19;19938;-66
2023/04/21 08:57:41;;;;;;;;;;;15.10;64.40;;;;;;9166203;19;20311;-66
2023/04/21 09:00:47;;;;;;;;;;;15.10;64.30;;;;;;9170224;19;19922;-66
2023/04/21 09:03:51;;;;;;;;;;;15.20;64.30;;;;;;9170839;19;20336;-66
2023/04/21 09:07:31;;;;;;;;;;;15.20;64.20;;;;;;9170940;19;19915;-66
2023/04/21 09:10:35;;;;;;;;;;;15.30;64.30;;;;;;9170529;19;20357;-66
2023/04/21 09:13:41;;;;;;;;;;;15.30;64.20;;;;;;9166068;19;19922;-66
2023/04/21 09:16:44;;;;;;;;;;;15.30;64.20;;;;;;9170791;19;20348;-67
2023/04/21 09:19:50;;;;;;;;;;;15.40;64.20;;;;;;9166671;19;19952;-67
2023/04/21 09:22:56;;;;;;;;;;;15.40;64.20;;;;;;9168435;19;19910;-67
2023/04/21 09:26:03;;;;;;;;;;;15.50;64.30;;;;;;9166159;19;20367;-67
2023/04/21 09:29:07;;;;;;;;;;;15.60;64.90;;;;;;9170954;19;20044;-67
2023/04/21 09:32:17;;;;;;;;;;;15.50;64.20;;;;;;9169839;19;19918;-67
2023/04/21 09:35:21;;;;;;;;;;;15.50;64.20;;;;;;9175491;19;19922;-66
2023/04/21 09:38:28;;;;;;;;;;;15.60;64.30;;;;;;9166591;19;19914;-66
2023/04/21 09:41:32;;;;;;;;;;;15.60;64.20;;;;;;9175755;19;19923;-67
2023/04/21 09:44:39;;;;;;;;;;;15.70;64.20;;;;;;9175802;19;20029;-67
2023/04/21 09:47:57;;;;;;;;;;;15.70;64.20;;;;;;9175966;19;19919;-67
2023/04/21 09:51:04;;;;;;;;;;;15.80;64.20;;;;;;9176032;19;20305;-67
2023/04/21 09:54:16;;;;;;;;;;;15.80;64.20;;;;;;9173584;19;19919;-67
2023/04/21 09:57:26;;;;;;;;;;;15.80;64.20;;;;;;9175094;19;19937;-67
2023/04/21 10:00:30;;;;;;;;;;;15.80;64.20;;;;;;9175328;19;19952;-68
2023/04/21 10:03:38;;;;;;;;;;;15.70;64.20;;;;;;9175785;19;20344;-68
2023/04/21 10:06:43;;;;;;;;;;;15.80;64.20;;;;;;9174795;19;19915;-69
2023/04/21 10:09:52;;;;;;;;;;;15.80;64.30;;;;;;9174765;19;19915;-68
2023/04/21 10:12:56;;;;;;;;;;;15.80;64.30;;;;;;9172412;19;20337;-66
2023/04/21 10:16:02;;;;;;;;;;;15.80;64.20;;;;;;9173988;19;20368;-65
2023/04/21 10:19:21;;;;;;;;;;;15.80;64.20;;;;;;9171877;19;20672;-69
2023/04/21 10:22:27;;;;;;;;;;;15.80;64.20;;;;;;9170599;19;19911;-66
2023/04/21 10:25:36;;;;;;;;;;;15.80;64.30;;;;;;9179153;19;19925;-64
2023/04/21 10:28:46;;;;;;;;;;;15.80;64.30;;;;;;9182195;19;19919;-65
2023/04/21 10:31:53;;;;;;;;;;;15.90;64.30;;;;;;9181436;19;19927;-65
2023/04/21 10:34:59;;;;;;;;;;;15.80;64.30;;;;;;9174565;19;19919;-65
2023/04/21 10:38:03;;;;;;;;;;;15.90;64.20;;;;;;9169385;19;19914;-65
2023/04/21 10:41:23;;;;;;;;;;;15.90;64.20;;;;;;9175379;19;19919;-66
2023/04/21 10:44:30;;;;;;;;;;;16.00;64.30;;;;;;9175294;19;19921;-66
2023/04/21 10:47:53;;;;;;;;;;;16.00;64.20;;;;;;9174849;19;19926;-66
2023/04/21 10:50:59;;;;;;;;;;;16.10;64.30;;;;;;9175436;19;19933;-66
2023/04/21 10:54:05;;;;;;;;;;;16.20;64.30;;;;;;9175659;19;19918;-65
2023/04/21 10:57:10;;;;;;;;;;;16.30;64.30;;;;;;9174782;19;19915;-66
2023/04/21 11:00:19;;;;;;;;;;;16.40;64.30;;;;;;9173777;19;19927;-65
2023/04/21 11:03:23;;;;;;;;;;;16.50;64.20;;;;;;9173301;19;19929;-65
2023/04/21 11:06:29;;;;;;;;;;;16.50;64.10;;;;;;9174932;19;19922;-66
2023/04/21 11:09:33;;;;;;;;;;;16.60;64.10;;;;;;9173835;19;19926;-65
2023/04/21 11:12:40;;;;;;;;;;;16.70;64.10;;;;;;9172826;19;19926;-66
2023/04/21 11:15:56;;;;;;;;;;;16.80;64.10;;;;;;9175083;19;19982;-66
2023/04/21 11:19:23;;;;;;;;;;;16.80;64.00;;;;;;9171395;19;20019;-66
2023/04/21 11:22:27;;;;;;;;;;;16.90;64.00;;;;;;9173721;19;20507;-65
2023/04/21 11:25:33;;;;;;;;;;;17.00;63.90;;;;;;9174259;19;19936;-66
2023/04/21 11:28:37;;;;;;;;;;;17.00;63.90;;;;;;9174607;19;19921;-65
2023/04/21 11:31:47;;;;;;;;;;;17.10;63.80;;;;;;9174402;19;19923;-66
2023/04/21 11:34:51;;;;;;;;;;;17.10;63.80;;;;;;9170155;19;19922;-66
2023/04/21 11:37:57;;;;;;;;;;;17.20;63.90;;;;;;9167202;19;20653;-66
2023/04/21 11:41:01;;;;;;;;;;;17.20;63.80;;;;;;9173656;19;19993;-66
2023/04/21 11:44:06;;;;;;;;;;;17.20;64.50;;;;;;9174094;19;20747;-66
2023/04/21 11:47:16;;;;;;;;;;;17.30;63.80;;;;;;9173187;19;20359;-66
2023/04/21 11:50:32;;;;;;;;;;;17.40;63.80;;;;;;9172920;19;20281;-66
2023/04/21 11:53:36;;;;;;;;;;;17.40;63.80;;;;;;9173076;19;19925;-66
2023/04/21 11:56:43;;;;;;;;;;;17.50;63.80;;;;;;9173226;19;19923;-66
2023/04/21 11:59:48;;;;;;;;;;;17.50;63.70;;;;;;9169647;19;19914;-66
2023/04/21 12:02:58;;;;;;;;;;;17.60;63.70;;;;;;9172862;19;20644;-66
2023/04/21 12:06:02;;;;;;;;;;;17.70;63.70;;;;;;9172558;19;19923;-66
2023/04/21 12:09:08;;;;;;;;;;;17.70;63.60;;;;;;9173044;19;20241;-66
2023/04/21 12:12:12;;;;;;;;;;;17.70;63.50;;;;;;9176703;19;20036;-66
2023/04/21 12:15:20;;;;;;;;;;;17.80;63.50;;;;;;9173099;19;19919;-67
2023/04/21 12:18:27;;;;;;;;;;;17.80;63.50;;;;;;9176747;19;19918;-66
2023/04/21 12:21:33;;;;;;;;;;;17.90;63.50;;;;;;9178868;19;19937;-65
2023/04/21 12:24:37;;;;;;;;;;;18.00;63.50;;;;;;9177802;19;20280;-68
2023/04/21 12:27:48;;;;;;;;;;;18.10;63.60;;;;;;9166029;19;19949;-68
2023/04/21 12:30:52;;;;;;;;;;;18.10;63.50;;;;;;9170362;19;19933;-68
2023/04/21 12:34:00;;;;;;;;;;;18.30;63.60;;;;;;9171880;19;19915;-68
2023/04/21 12:37:04;;;;;;;;;;;18.40;63.50;;;;;;9165969;19;19910;-68
2023/04/21 12:40:11;;;;;;;;;;;18.50;63.50;;;;;;9168466;19;19922;-68
2023/04/21 12:43:14;;;;;;;;;;;18.70;63.40;;;;;;9169489;19;19915;-68
2023/04/21 12:46:20;;;;;;;;;;;18.90;63.30;;;;;;9168904;19;19929;-68
2023/04/21 12:49:26;;;;;;;;;;;19.10;63.30;;;;;;9168813;19;20258;-68
2023/04/21 12:52:32;;;;;;;;;;;19.30;63.20;;;;;;9171771;19;19925;-68
2023/04/21 12:55:36;;;;;;;;;;;19.40;63.00;;;;;;9169819;19;19925;-68
2023/04/21 12:58:42;;;;;;;;;;;19.60;62.90;;;;;;9169122;19;19929;-68
2023/04/21 13:01:46;;;;;;;;;;;19.80;62.90;;;;;;9170559;19;19927;-67
2023/04/21 13:04:54;;;;;;;;;;;19.90;62.70;;;;;;9170879;19;20340;-67
2023/04/21 13:07:58;;;;;;;;;;;20.00;62.60;;;;;;9170899;19;20645;-68
2023/04/21 13:11:04;;;;;;;;;;;20.20;62.60;;;;;;9168601;19;19919;-68
2023/04/21 13:14:08;;;;;;;;;;;20.30;62.60;;;;;;9164831;19;19990;-67
2023/04/21 13:17:14;;;;;;;;;;;20.30;62.50;;;;;;9168634;19;19922;-67
2023/04/21 13:20:20;;;;;;;;;;;20.40;62.40;;;;;;9166169;19;19919;-67
2023/04/21 13:23:28;;;;;;;;;;;20.40;62.40;;;;;;9169040;19;19929;-68
2023/04/21 13:26:33;;;;;;;;;;;20.50;62.50;;;;;;9168105;19;19937;-68
2023/04/21 13:29:39;;;;;;;;;;;20.50;62.40;;;;;;9168671;19;20345;-67
2023/04/21 13:32:43;;;;;;;;;;;20.50;62.40;;;;;;9169152;19;19927;-67
2023/04/21 13:35:51;;;;;;;;;;;20.50;62.50;;;;;;9164460;19;19929;-68
2023/04/21 13:38:55;;;;;;;;;;;20.50;62.30;;;;;;9167002;19;19927;-68
2023/04/21 13:42:01;;;;;;;;;;;20.50;62.20;;;;;;9169015;19;19926;-68
2023/04/21 13:45:05;;;;;;;;;;;20.50;62.20;;;;;;9168663;19;19927;-67
2023/04/21 13:48:11;;;;;;;;;;;20.50;62.30;;;;;;9169635;19;20284;-68
2023/04/21 13:51:17;;;;;;;;;;;20.50;62.30;;;;;;9168990;19;19943;-67
2023/04/21 13:54:23;;;;;;;;;;;20.50;62.30;;;;;;9168042;19;20341;-68
2023/04/21 13:57:27;;;;;;;;;;;20.50;62.30;;;;;;9169598;19;20783;-68
2023/04/21 14:00:33;;;;;;;;;;;20.40;62.20;;;;;;9175439;19;19926;-68
2023/04/21 14:03:37;;;;;;;;;;;20.40;62.20;;;;;;9175384;19;20351;-68
2023/04/21 14:06:45;;;;;;;;;;;20.40;62.20;;;;;;9174696;19;20347;-68
2023/04/21 14:09:50;;;;;;;;;;;20.30;62.10;;;;;;9176914;19;19932;-67
2023/04/21 14:12:56;;;;;;;;;;;20.30;62.20;;;;;;9174494;19;20439;-68
2023/04/21 14:16:00;;;;;;;;;;;20.30;62.20;;;;;;9175294;19;19936;-68
2023/04/21 14:19:05;;;;;;;;;;;20.20;62.20;;;;;;9175307;19;20377;-67
2023/04/21 14:22:11;;;;;;;;;;;20.20;62.20;;;;;;9175417;19;19926;-66
2023/04/21 14:25:17;;;;;;;;;;;20.20;62.30;;;;;;9174746;19;19914;-66
2023/04/21 14:28:21;;;;;;;;;;;20.20;62.20;;;;;;9173847;19;19923;-67
2023/04/21 14:31:27;;;;;;;;;;;20.30;62.20;;;;;;9176302;19;20685;-67
2023/04/21 14:34:30;;;;;;;;;;;20.30;62.10;;;;;;9175809;19;19926;-67
2023/04/21 14:37:38;;;;;;;;;;;20.30;62.70;;;;;;9170054;19;19953;-67
2023/04/21 14:40:42;;;;;;;;;;;20.30;62.10;;;;;;9172772;19;19919;-66
2023/04/21 14:43:52;;;;;;;;;;;20.30;62.10;;;;;;9175280;19;19922;-67
2023/04/21 14:46:56;;;;;;;;;;;20.30;62.00;;;;;;9171990;19;19928;-67
2023/04/21 14:50:14;;;;;;;;;;;20.30;61.90;;;;;;9172066;19;19921;-67
2023/04/21 14:53:20;;;;;;;;;;;20.30;61.90;;;;;;9174176;19;20301;-67
2023/04/21 14:56:26;;;;;;;;;;;20.30;61.90;;;;;;9173751;19;19922;-67
2023/04/21 14:59:30;;;;;;;;;;;20.30;61.90;;;;;;9172619;19;20348;-66
2023/04/21 15:02:38;;;;;;;;;;;20.30;62.50;;;;;;9171933;19;19926;-67
2023/04/21 15:05:42;;;;;;;;;;;20.30;61.80;;;;;;9173768;19;19982;-66
2023/04/21 15:08:49;;;;;;;;;;;20.30;62.50;;;;;;9173710;19;19919;-66
2023/04/21 15:11:54;;;;;;;;;;;20.30;61.90;;;;;;9172371;19;19931;-66
2023/04/21 15:14:59;;;;;;;;;;;20.30;61.80;;;;;;9173562;19;19918;-66
2023/04/21 15:18:03;;;;;;;;;;;20.30;61.80;;;;;;9173498;19;19923;-67
2023/04/21 15:21:09;;;;;;;;;;;20.30;61.80;;;;;;9173201;19;19930;-67
2023/04/21 15:24:15;;;;;;;;;;;20.30;61.70;;;;;;9173472;19;19915;-67
2023/04/21 15:27:21;;;;;;;;;;;20.30;61.70;;;;;;9172597;19;19930;-66
2023/04/21 15:30:24;;;;;;;;;;;20.30;61.70;;;;;;9172874;19;20362;-67
2023/04/21 15:33:30;;;;;;;;;;;20.30;61.70;;;;;;9173197;19;19919;-67
2023/04/21 15:36:34;;;;;;;;;;;20.20;61.60;;;;;;9167189;19;19918;-66
2023/04/21 15:39:42;;;;;;;;;;;20.20;61.70;;;;;;9169837;19;20260;-67
2023/04/21 15:42:45;;;;;;;;;;;20.20;61.60;;;;;;9173076;19;20348;-67
2023/04/21 15:45:51;;;;;;;;;;;20.10;61.60;;;;;;9171718;19;19930;-67
2023/04/21 15:48:55;;;;;;;;;;;20.10;61.60;;;;;;9170001;19;19922;-67
2023/04/21 15:52:03;;;;;;;;;;;20.00;61.50;;;;;;9172122;19;20368;-67
2023/04/21 15:55:10;;;;;;;;;;;20.00;61.50;;;;;;9172809;19;20273;-67
2023/04/21 15:58:18;;;;;;;;;;;20.00;61.50;;;;;;9168584;19;19970;-67
2023/04/21 16:01:21;;;;;;;;;;;20.00;61.50;;;;;;9167865;19;20025;-66
2023/04/21 16:04:27;;;;;;;;;;;19.90;61.50;;;;;;9171201;19;19926;-66
2023/04/21 16:07:32;;;;;;;;;;;19.80;61.50;;;;;;9171713;19;20372;-66
2023/04/21 16:10:40;;;;;;;;;;;19.70;61.50;;;;;;9171695;19;19926;-67
2023/04/21 16:13:44;;;;;;;;;;;19.70;61.60;;;;;;9168458;19;19993;-67
2023/04/21 16:16:50;;;;;;;;;;;19.60;61.60;;;;;;9171391;19;19922;-67
2023/04/21 16:19:54;;;;;;;;;;;19.60;61.60;;;;;;9167663;19;20466;-67
2023/04/21 16:23:00;;;;;;;;;;;19.50;61.60;;;;;;9168566;19;19945;-67
2023/04/21 16:26:13;;;;;;;;;;;19.40;61.50;;;;;;9170060;19;19921;-66
2023/04/21 16:29:19;;;;;;;;;;;19.30;61.60;;;;;;9169827;19;19937;-67
2023/04/21 16:32:23;;;;;;;;;;;19.30;61.60;;;;;;9171435;19;19918;-66
2023/04/21 16:35:29;;;;;;;;;;;19.30;61.60;;;;;;9170667;19;19926;-67
2023/04/21 16:38:33;;;;;;;;;;;19.20;61.60;;;;;;9165932;19;19918;-67
2023/04/21 16:41:40;;;;;;;;;;;19.20;61.60;;;;;;9171715;19;19966;-67
2023/04/21 16:44:44;;;;;;;;;;;19.10;61.60;;;;;;9167271;19;20423;-66
2023/04/21 16:47:50;;;;;;;;;;;19.10;61.60;;;;;;9163921;19;19941;-66
2023/04/21 16:50:54;;;;;;;;;;;19.00;61.60;;;;;;9161039;19;19922;-67
2023/04/21 16:54:00;;;;;;;;;;;19.00;61.60;;;;;;9161707;19;19919;-66
2023/04/21 16:57:06;;;;;;;;;;;19.00;61.60;;;;;;9160230;19;19914;-67
2023/04/21 17:00:12;;;;;;;;;;;18.90;61.60;;;;;;9160272;19;20336;-67
2023/04/21 17:03:16;;;;;;;;;;;18.90;61.60;;;;;;9163143;19;19927;-68
2023/04/21 17:06:22;;;;;;;;;;;18.80;61.60;;;;;;9160401;19;20339;-68
2023/04/21 17:09:26;;;;;;;;;;;18.80;61.70;;;;;;9159931;19;19929;-68
2023/04/21 17:12:33;;;;;;;;;;;18.80;61.70;;;;;;9158125;19;19921;-68
2023/04/21 17:15:37;;;;;;;;;;;18.70;61.70;;;;;;9158113;19;19923;-68
2023/04/21 17:18:43;;;;;;;;;;;18.70;61.70;;;;;;9164577;19;19922;-68
2023/04/21 17:21:46;;;;;;;;;;;18.70;61.70;;;;;;9164408;19;20451;-68
2023/04/21 17:24:52;;;;;;;;;;;18.70;61.70;;;;;;9161967;19;20568;-64
2023/04/21 17:27:59;;;;;;;;;;;18.70;61.70;;;;;;9159014;19;20485;-67
2023/04/21 17:31:05;;;;;;;;;;;18.60;61.70;;;;;;9160650;19;19915;-67
2023/04/21 17:34:19;;;;;;;;;;;18.60;61.70;;;;;;9160286;19;19922;-68
2023/04/21 17:37:25;;;;;;;;;;;18.60;61.70;;;;;;9151056;19;19917;-68
2023/04/21 17:40:28;;;;;;;;;;;18.50;61.70;;;;;;9164677;19;19946;-66
2023/04/21 17:43:36;;;;;;;;;;;18.50;61.70;;;;;;9167579;19;20732;-67
2023/04/21 17:46:42;;;;;;;;;;;18.50;61.80;;;;;;9167074;19;19921;-67
2023/04/21 17:49:48;;;;;;;;;;;18.50;61.80;;;;;;9158115;19;19922;-67
2023/04/21 17:52:52;;;;;;;;;;;18.40;61.70;;;;;;9158652;19;19960;-67
2023/04/21 17:55:58;;;;;;;;;;;18.40;61.70;;;;;;9158395;19;19922;-66
2023/04/21 17:59:04;;;;;;;;;;;18.40;61.70;;;;;;9163407;19;19934;-67
2023/04/21 18:02:10;;;;;;;;;;;18.40;61.80;;;;;;9158566;19;20257;-67